Little Clacton, United Kingdom
Current Conditions -  °F | °C
As of 12:50 PM on Wednesday 22 Oct 2014 (Local Time) from EGUW Reporting Station
Few Clouds Few Clouds  
Wind Chill: 55°   Ceiling: Unl
Heat Index: 55°   Visibility: 6mi
Dew Point: 43°   Wind: 15mph
Humidity: 63%   Direction: 300°WNW
Pressure: 30.21"   Gusts: NA
Location:  51.83°N, 1.14°E
Report Text: EGUW 221150Z 30013KT 9999 FEW025 13/06 Q1023 BLU NOSIG
Loading
Personal Weather Stations






























Interactive Weather Map
Tropical Storm Tracking
New forecast layout! Learn more

10-Day Weather Forecast

Advertisements
Track Severe Weather on mobile